Terminal Aerodrome Forecast
Issued by NWS Charleston, SC

Home | Current Version | Previous Version | Text Only | Print | Product List | Glossary On
Versions: 1 2 3 4 5 6 7 8 9 10 11 12
000
FTUS42 KCHS 122321
TAFSAV
TAF
KSAV 122321Z 1300/1324 29013G20KT P6SM SKC
     FM130600 30009KT P6SM SKC
     FM131800 25009KT P6SM SKC=

USA.gov is the U.S. government's official web portal to all federal, state and local government web resources and services.